»·PEaware :: N132EF KPSP-KMYF

N132EF :: KPSP-KMYF

FLIGHT INFORMATION

Flight Status: Arrived
Operator: Privately registered:
United States
More flights under this callsign
Pilot: Ron R. (25532)
Aircraft: BEECH AIRCRAFT DUKE
(BE60)
More flights by this aircraft type
Origin: KPSP Palm Springs Intl
United States
Destination: KMYF Montgomery
United States
More flights between these airports :: More routes between these airports
Route: +CATH1 PSP TRM V514 MZB
File this flight plan on PilotEdge
Remarks:
Altitude:
(Current/Filed)
10,000ft
Speed:
(Current/Filed)
200kts
Departed: 26-Aug-19 08:21 AM
Arrived: 26-Aug-19 09:00 AM
Distance/Time
Traveled:
69nm/0:39
Distance/Time
To Go:
Arrived

Flight Plot

Page will automatically refresh every two minutes.


Map Options




Map Legend


Flown Route
Filed Route
Departure Airport
Arrival Airport
Navaid (VOR, NDB)
Fix

Horizontal Profiles

Position Reports

Time Latitude Longitude Heading Altitude Ground
Speed
26-Aug-19 07:47 33.825225 -116.508836 179 480ft 0kts
26-Aug-19 07:48 33.825225 -116.508836 179 480ft 0kts
26-Aug-19 07:49 33.825225 -116.508836 179 480ft 0kts
26-Aug-19 07:50 33.825225 -116.508836 179 480ft 0kts
26-Aug-19 07:51 33.825224 -116.508836 179 480ft 0kts
26-Aug-19 07:52 33.825222 -116.508836 179 480ft 0kts
26-Aug-19 07:53 33.825220 -116.508836 179 480ft 0kts
26-Aug-19 07:54 33.825217 -116.508836 179 480ft 0kts
26-Aug-19 07:55 33.825215 -116.508836 179 480ft 0kts
26-Aug-19 07:57 33.825213 -116.508836 179 480ft 0kts
26-Aug-19 07:58 33.825213 -116.508836 179 480ft 0kts
26-Aug-19 07:59 33.825213 -116.508836 179 480ft 0kts
26-Aug-19 08:00 33.825213 -116.508836 179 480ft 0kts
26-Aug-19 08:01 33.825213 -116.508836 179 480ft 0kts
26-Aug-19 08:02 33.825213 -116.508836 179 480ft 0kts
26-Aug-19 08:03 33.825213 -116.508836 179 480ft 0kts
26-Aug-19 08:04 33.825213 -116.508836 179 480ft 0kts
26-Aug-19 08:05 33.825213 -116.508836 179 480ft 0kts
26-Aug-19 08:06 33.825259 -116.508836 179 480ft 1kts
26-Aug-19 08:07 33.824710 -116.507411 125 480ft 10kts
26-Aug-19 08:08 33.824111 -116.504444 143 480ft 10kts
26-Aug-19 08:09 33.821525 -116.502167 143 480ft 12kts
26-Aug-19 08:10 33.818611 -116.499595 143 480ft 13kts
26-Aug-19 08:11 33.817140 -116.498111 341 480ft 0kts
26-Aug-19 08:12 33.817143 -116.498113 341 480ft 0kts
26-Aug-19 08:13 33.817145 -116.498114 341 480ft 0kts
26-Aug-19 08:13 33.817147 -116.498114 341 480ft 0kts
26-Aug-19 08:15 33.817152 -116.498117 340 480ft 0kts
26-Aug-19 08:16 33.817157 -116.498119 340 480ft 0kts
26-Aug-19 08:16 33.817159 -116.498120 340 480ft 0kts
26-Aug-19 08:18 33.817162 -116.498121 340 480ft 0kts
26-Aug-19 08:18 33.817602 -116.497868 52 480ft 5kts
26-Aug-19 08:19 33.817633 -116.497819 52 480ft 0kts
26-Aug-19 08:21 33.819967 -116.499019 323 480ft 63kts
26-Aug-19 08:21 33.844773 -116.520793 322 1340ft 148kts
26-Aug-19 08:22 33.877560 -116.551613 318 3045ft 148kts
26-Aug-19 08:23 33.913204 -116.575200 14 4561ft 157kts
26-Aug-19 08:24 33.914019 -116.531722 119 5989ft 158kts
26-Aug-19 08:25 33.892364 -116.484088 117 6989ft 175kts
26-Aug-19 08:26 33.869612 -116.431987 115 7423ft 162kts
26-Aug-19 08:27 33.848641 -116.383493 116 8977ft 163kts
26-Aug-19 08:28 33.817104 -116.342396 142 10008ft 191kts
26-Aug-19 08:29 33.771092 -116.298974 140 9981ft 214kts
26-Aug-19 08:30 33.725801 -116.255072 140 9961ft 205kts
26-Aug-19 08:31 33.683082 -116.213441 140 9944ft 191kts
26-Aug-19 08:32 33.641153 -116.173960 152 9934ft 193kts
26-Aug-19 08:33 33.592262 -116.191478 217 9908ft 200kts
26-Aug-19 08:34 33.547451 -116.231073 215 9887ft 200kts
26-Aug-19 08:35 33.502611 -116.270340 215 9895ft 199kts
26-Aug-19 08:36 33.457941 -116.309453 215 9904ft 199kts
26-Aug-19 08:37 33.413229 -116.348546 215 9913ft 199kts
26-Aug-19 08:38 33.368383 -116.387709 215 9923ft 199kts
26-Aug-19 08:39 33.323669 -116.426705 215 9934ft 198kts
26-Aug-19 08:40 33.278995 -116.465613 214 9947ft 199kts
26-Aug-19 08:41 33.234372 -116.504422 214 9983ft 198kts
26-Aug-19 08:42 33.189713 -116.543217 214 10004ft 198kts
26-Aug-19 08:43 33.144777 -116.582010 211 10012ft 198kts
26-Aug-19 08:44 33.091312 -116.591086 182 10021ft 196kts
26-Aug-19 08:45 33.036923 -116.596618 183 10025ft 196kts
26-Aug-19 08:46 32.982534 -116.602310 183 10026ft 196kts
26-Aug-19 08:47 32.928375 -116.610205 205 9844ft 201kts
26-Aug-19 08:48 32.898034 -116.664160 242 9068ft 196kts
26-Aug-19 08:49 32.873054 -116.719516 242 8457ft 183kts
26-Aug-19 08:50 32.849396 -116.771343 241 6955ft 172kts
26-Aug-19 08:51 32.834516 -116.821185 286 5609ft 158kts
26-Aug-19 08:52 32.850470 -116.870503 292 4774ft 162kts
26-Aug-19 08:53 32.867733 -116.921415 292 4027ft 160kts
26-Aug-19 08:54 32.869548 -116.969923 252 4009ft 152kts
26-Aug-19 08:55 32.855781 -117.018385 252 3711ft 164kts
26-Aug-19 08:56 32.832621 -117.065074 221 2564ft 164kts
26-Aug-19 08:57 32.802847 -117.096586 247 1229ft 117kts
26-Aug-19 08:58 32.812063 -117.129166 294 521ft 103kts
26-Aug-19 08:59 32.817909 -117.145136 217 430ft 7kts
26-Aug-19 09:00 32.815837 -117.144575 114 430ft 13kts
26-Aug-19 09:01 32.814250 -117.140524 140 430ft 10kts
26-Aug-19 09:02 32.813284 -117.140522 21 430ft 0kts
26-Aug-19 09:03 32.813286 -117.140521 21 430ft 0kts
26-Aug-19 09:04 32.813286 -117.140521 21 430ft 0kts

Navigation Log

Ident Type
Flight plan parsing failed, navigation log unavailable